Time;durP1;ratioP1;P1;durP2;ratioP2;P2;SDS_P1;SDS_P2;PMS_P1;PMS_P2;Temp;Humidity;BMP_temperature;BMP_pressure;BME280_temperature;BME280_humidity;BME280_pressure;Samples;Min_cycle;Max_cycle;Signal;HPM_P1;HPM_P2
2022/07/29 00:02:06;;;;;;;9.57;2.60;;;;;;;17.72;77.68;101640.75;5054487;28;20347;-50
2022/07/29 00:04:34;;;;;;;7.93;2.65;;;;;;;17.70;77.74;101634.69;5054572;28;20048;-49
2022/07/29 00:07:00;;;;;;;7.93;2.50;;;;;;;17.67;78.06;101632.38;5054627;28;20523;-51
2022/07/29 00:09:25;;;;;;;9.18;2.65;;;;;;;17.65;78.62;101626.31;5053396;28;20036;-50
2022/07/29 00:11:50;;;;;;;6.75;2.72;;;;;;;17.59;79.09;101630.59;5054406;28;20249;-49
2022/07/29 00:14:16;;;;;;;5.22;2.50;;;;;;;17.66;78.61;101634.22;5051697;28;20101;-50
2022/07/29 00:16:41;;;;;;;5.57;2.63;;;;;;;17.58;79.18;101631.63;5054611;28;20398;-51
2022/07/29 00:19:06;;;;;;;9.05;2.38;;;;;;;17.58;78.91;101633.50;5053481;28;20090;-46
2022/07/29 00:21:32;;;;;;;13.75;3.00;;;;;;;17.59;79.88;101640.59;5057560;28;20020;-49
2022/07/29 00:23:57;;;;;;;4.70;2.65;;;;;;;17.52;79.69;101635.91;5055019;28;20595;-50
2022/07/29 00:26:23;;;;;;;9.45;2.70;;;;;;;17.55;79.72;101636.56;5057707;28;20028;-48
2022/07/29 00:28:48;;;;;;;10.32;2.70;;;;;;;17.54;79.70;101633.03;5056131;28;20107;-49
2022/07/29 00:31:14;;;;;;;6.78;2.63;;;;;;;17.58;79.70;101634.31;5056964;28;20021;-50
2022/07/29 00:33:40;;;;;;;10.13;2.40;;;;;;;17.61;79.77;101627.72;5057493;28;20094;-50
2022/07/29 00:36:05;;;;;;;5.45;2.33;;;;;;;17.64;80.02;101621.94;5057251;28;20285;-49
2022/07/29 00:38:31;;;;;;;7.60;2.60;;;;;;;17.65;79.81;101619.06;5051905;28;20070;-49
2022/07/29 00:40:56;;;;;;;9.25;2.45;;;;;;;17.70;79.86;101627.44;5057130;28;20025;-50
2022/07/29 00:43:21;;;;;;;6.25;2.60;;;;;;;17.63;79.13;101620.25;5057860;28;20103;-49
2022/07/29 00:45:47;;;;;;;4.85;2.28;;;;;;;17.60;80.45;101616.09;5056229;28;20082;-49
2022/07/29 00:48:12;;;;;;;5.90;2.33;;;;;;;17.59;80.31;101614.41;5056603;28;20036;-50
2022/07/29 00:50:38;;;;;;;7.25;2.63;;;;;;;17.64;80.85;101613.84;5057016;28;20037;-49
2022/07/29 00:53:06;;;;;;;6.82;2.90;;;;;;;17.66;80.48;101619.88;5056245;28;20324;-50
2022/07/29 00:55:32;;;;;;;6.88;2.47;;;;;;;17.68;81.06;101609.72;5057491;28;20031;-51
2022/07/29 00:57:58;;;;;;;10.35;2.58;;;;;;;17.73;80.69;101625.38;5057042;28;20024;-48
2022/07/29 01:00:26;;;;;;;8.13;3.05;;;;;;;17.76;79.79;101628.53;5055246;28;20478;-51
2022/07/29 01:02:52;;;;;;;12.18;2.80;;;;;;;17.80;80.41;101637.91;5055211;28;20028;-49
2022/07/29 01:05:19;;;;;;;8.13;2.85;;;;;;;17.77;79.45;101649.13;5056829;28;20035;-50
2022/07/29 01:07:46;;;;;;;5.70;2.72;;;;;;;17.70;79.22;101638.25;5055833;28;20078;-50
2022/07/29 01:10:14;;;;;;;9.07;2.78;;;;;;;17.70;79.27;101646.34;5054946;28;20023;-50
2022/07/29 01:12:40;;;;;;;8.70;2.72;;;;;;;17.65;79.57;101650.63;5057596;28;20036;-49
2022/07/29 01:15:07;;;;;;;7.90;2.78;;;;;;;17.62;79.21;101659.94;5054709;28;20043;-49
2022/07/29 01:17:38;;;;;;;10.55;2.72;;;;;;;17.70;79.49;101653.59;5056917;28;20490;-48
2022/07/29 01:20:09;;;;;;;;;;;;;;;17.84;77.13;101647.34;5056727;28;20028;-50
2022/07/29 01:23:00;;;;;;;8.90;2.60;;;;;;;17.85;78.15;101635.50;5055632;28;19951;-49
2022/07/29 01:25:56;;;;;;;7.95;2.40;;;;;;;17.86;78.70;101626.38;5055212;28;20035;-50
2022/07/29 01:28:36;;;;;;;6.15;2.60;;;;;;;17.83;78.78;101609.69;5056474;28;20036;-48
2022/07/29 01:31:05;;;;;;;8.43;2.75;;;;;;;17.80;79.27;101599.25;5055245;28;20078;-49
2022/07/29 01:33:48;;;;;;;9.00;2.30;;;;;;;17.75;79.16;101597.13;5070857;28;20111;-50
2022/07/29 01:36:18;;;;;;;7.35;2.70;;;;;;;17.65;80.16;101593.88;5044352;28;20008;-49
2022/07/29 01:38:49;;;;;;;7.07;2.50;;;;;;;17.58;80.51;101598.38;5055571;28;20040;-48
2022/07/29 01:41:17;;;;;;;6.70;2.25;;;;;;;17.57;80.28;101586.75;5055848;28;20052;-50
2022/07/29 01:43:59;;;;;;;11.57;2.45;;;;;;;17.55;80.07;101586.09;5051145;28;20016;-49
2022/07/29 01:46:30;;;;;;;8.25;2.63;;;;;;;17.55;81.73;101583.41;5043199;28;20501;-49
2022/07/29 01:49:05;;;;;;;8.38;2.45;;;;;;;17.55;81.69;101577.13;5056149;28;20455;-50
2022/07/29 01:51:52;;;;;;;6.72;2.50;;;;;;;17.59;80.80;101575.75;5055690;28;20360;-50
2022/07/29 01:54:28;;;;;;;9.18;2.20;;;;;;;17.55;81.91;101572.59;5055990;28;20475;-49
2022/07/29 01:56:58;;;;;;;8.10;2.58;;;;;;;17.43;81.68;101563.28;5056656;28;20206;-50
2022/07/29 01:59:25;;;;;;;7.93;2.90;;;;;;;17.41;81.80;101559.94;5052771;28;20143;-49
2022/07/29 02:01:53;;;;;;;7.05;2.85;;;;;;;17.42;81.81;101558.94;5056259;28;20079;-48
2022/07/29 02:04:20;;;;;;;11.25;2.80;;;;;;;17.40;81.44;101558.28;5055123;28;20412;-50
2022/07/29 02:06:49;;;;;;;11.20;2.75;;;;;;;17.42;81.47;101553.53;5055627;28;20430;-48
2022/07/29 02:09:15;;;;;;;16.42;2.70;;;;;;;17.35;81.65;101550.75;5054435;28;20029;-50
2022/07/29 02:11:49;;;;;;;8.45;3.00;;;;;;;17.35;81.33;101550.75;5055480;28;20028;-50
2022/07/29 02:14:17;;;;;;;8.65;2.88;;;;;;;17.32;82.14;101551.13;5054036;28;20024;-50
2022/07/29 02:16:43;;;;;;;13.98;3.03;;;;;;;17.28;83.01;101533.63;5056257;28;20056;-49
2022/07/29 02:19:10;;;;;;;8.63;2.90;;;;;;;17.25;82.98;101534.00;5054790;28;20020;-50
2022/07/29 02:21:36;;;;;;;7.63;2.50;;;;;;;17.25;82.93;101534.00;5055639;28;20424;-47
2022/07/29 02:24:02;;;;;;;6.82;2.53;;;;;;;17.20;83.42;101525.63;5054682;28;20039;-48
2022/07/29 02:26:29;;;;;;;8.57;3.08;;;;;;;17.17;84.16;101524.13;5054440;28;20024;-50
2022/07/29 02:28:57;;;;;;;7.25;2.35;;;;;;;17.10;85.30;101531.31;5053394;28;20032;-51
2022/07/29 02:31:26;;;;;;;9.35;2.75;;;;;;;17.06;86.83;101530.03;5055797;28;20017;-50
2022/07/29 02:33:53;;;;;;;8.48;2.92;;;;;;;17.01;90.83;101525.19;5050350;28;20028;-49
2022/07/29 02:36:22;;;;;;;10.38;3.00;;;;;;;16.96;91.92;101524.91;5055133;28;20016;-48
2022/07/29 02:38:51;;;;;;;7.13;3.08;;;;;;;16.94;92.47;101526.97;5054416;28;20430;-48
2022/07/29 02:41:26;;;;;;;10.45;2.92;;;;;;;16.90;94.01;101531.88;5054308;28;20119;-49
2022/07/29 02:43:55;;;;;;;11.35;2.95;;;;;;;16.85;93.44;101531.59;5053320;28;20388;-49
2022/07/29 02:46:28;;;;;;;7.07;2.80;;;;;;;16.84;93.47;101534.47;5055299;28;20028;-49
2022/07/29 02:49:01;;;;;;;8.00;3.25;;;;;;;16.79;94.88;101535.84;5055303;28;20573;-47
2022/07/29 02:51:39;;;;;;;6.82;2.83;;;;;;;16.73;94.47;101530.34;5054534;28;20059;-46
2022/07/29 02:54:08;;;;;;;5.90;2.70;;;;;;;16.65;94.17;101534.00;5054891;28;20051;-47
2022/07/29 02:56:34;;;;;;;5.75;2.88;;;;;;;16.60;94.59;101542.63;5053984;28;20017;-47
2022/07/29 02:59:05;;;;;;;5.72;2.80;;;;;;;16.65;94.19;101541.22;5053718;28;20545;-47
2022/07/29 03:01:33;;;;;;;8.60;2.80;;;;;;;16.62;92.77;101544.31;5055165;28;20112;-47
2022/07/29 03:04:03;;;;;;;7.30;2.90;;;;;;;16.64;94.60;101537.69;5054899;28;20108;-48
2022/07/29 03:06:28;;;;;;;6.20;2.60;;;;;;;16.59;95.21;101540.94;5055690;28;20107;-50
2022/07/29 03:08:55;;;;;;;6.18;2.67;;;;;;;16.50;95.93;101536.66;5043443;28;20340;-48
2022/07/29 03:11:21;;;;;;;6.43;2.88;;;;;;;16.44;96.61;101536.56;5055490;28;20035;-47
2022/07/29 03:13:47;;;;;;;9.32;3.20;;;;;;;16.34;97.35;101532.22;5053316;28;20024;-48
2022/07/29 03:16:13;;;;;;;17.38;3.33;;;;;;;16.24;98.24;101539.75;5054210;28;20013;-48
2022/07/29 03:18:39;;;;;;;6.57;3.22;;;;;;;16.22;95.99;101545.34;5053947;28;20079;-48
2022/07/29 03:21:04;;;;;;;16.02;3.65;;;;;;;16.25;99.94;101543.28;5054992;28;20021;-51
2022/07/29 03:23:30;;;;;;;12.02;3.50;;;;;;;16.25;100.00;101554.06;5054173;28;20107;-50
2022/07/29 03:25:55;;;;;;;13.63;3.20;;;;;;;16.29;100.00;101544.59;5054709;28;20024;-49
2022/07/29 03:28:21;;;;;;;8.73;3.38;;;;;;;16.25;100.00;101541.44;5054632;28;20463;-50
2022/07/29 03:30:47;;;;;;;8.65;3.40;;;;;;;16.28;100.00;101549.16;5053701;28;20039;-48
2022/07/29 03:33:13;;;;;;;10.60;3.30;;;;;;;16.29;98.89;101552.69;5053250;28;20017;-50
2022/07/29 03:35:38;;;;;;;12.43;3.28;;;;;;;16.22;97.85;101557.97;5052702;28;20416;-50
2022/07/29 03:38:04;;;;;;;13.57;3.60;;;;;;;16.18;99.04;101552.09;5053607;28;20042;-49
2022/07/29 03:40:35;;;;;;;8.00;3.70;;;;;;;16.18;100.00;101552.09;5054623;28;20025;-50
2022/07/29 03:43:01;;;;;;;13.52;3.47;;;;;;;16.16;100.00;101556.00;5054952;28;20094;-49
2022/07/29 03:45:30;;;;;;;5.85;3.28;;;;;;;16.17;100.00;101550.44;5041532;28;20044;-47
2022/07/29 03:48:00;;;;;;;14.95;3.63;;;;;;;16.12;100.00;101541.19;5053407;28;20359;-49
2022/07/29 03:50:27;;;;;;;7.70;3.03;;;;;;;16.14;100.00;101544.53;5054071;28;20104;-50
2022/07/29 03:52:52;;;;;;;22.85;4.03;;;;;;;16.07;100.00;101536.34;5053839;28;20270;-51
2022/07/29 03:55:17;;;;;;;13.20;4.18;;;;;;;16.00;100.00;101536.25;5055187;28;20382;-47
2022/07/29 03:57:44;;;;;;;11.02;3.72;;;;;;;15.96;100.00;101532.22;5058563;28;20039;-51
2022/07/29 04:00:10;;;;;;;7.43;4.03;;;;;;;15.92;100.00;101538.13;5056734;28;20585;-50
2022/07/29 04:02:37;;;;;;;10.27;4.00;;;;;;;15.90;100.00;101540.19;5057467;28;20454;-51
2022/07/29 04:05:03;;;;;;;9.25;3.80;;;;;;;15.90;100.00;101553.66;5058722;28;20420;-50
2022/07/29 04:07:29;;;;;;;8.50;3.83;;;;;;;15.88;100.00;101551.13;5057602;28;20664;-51
2022/07/29 04:09:54;;;;;;;7.50;4.05;;;;;;;15.90;100.00;101553.66;5058680;28;20032;-51
2022/07/29 04:12:20;;;;;;;13.95;4.32;;;;;;;15.87;100.00;101554.00;5057653;28;20034;-51
2022/07/29 04:14:46;;;;;;;8.05;3.88;;;;;;;15.81;100.00;101544.78;5056971;28;20024;-48
2022/07/29 04:17:11;;;;;;;13.82;4.22;;;;;;;15.69;100.00;101538.13;5057233;28;20048;-48
2022/07/29 04:19:36;;;;;;;12.85;4.25;;;;;;;15.63;100.00;101536.94;5056860;28;20077;-51
2022/07/29 04:22:01;;;;;;;8.25;3.83;;;;;;;15.59;100.00;101536.47;5057848;28;20853;-50
2022/07/29 04:24:27;;;;;;;8.20;4.30;;;;;;;15.56;100.00;101527.91;5056645;28;20316;-50
2022/07/29 04:26:53;;;;;;;10.93;4.22;;;;;;;15.54;100.00;101533.47;5057987;28;20024;-51
2022/07/29 04:29:19;;;;;;;7.10;4.05;;;;;;;15.52;100.00;101529.28;5055095;28;20025;-51
2022/07/29 04:31:45;;;;;;;15.77;4.28;;;;;;;15.49;100.00;101522.41;5058124;28;20526;-50
2022/07/29 04:34:11;;;;;;;10.73;4.78;;;;;;;15.45;100.00;101534.53;5054882;28;20249;-50
2022/07/29 04:36:36;;;;;;;8.85;4.25;;;;;;;15.47;100.00;101530.66;5054575;28;20086;-50
2022/07/29 04:39:02;;;;;;;14.95;4.40;;;;;;;15.35;100.00;101537.44;5057600;28;20475;-50
2022/07/29 04:41:28;;;;;;;8.40;4.70;;;;;;;15.29;100.00;101533.63;5057556;28;20024;-47
2022/07/29 04:43:53;;;;;;;8.63;4.50;;;;;;;15.28;100.00;101534.63;5056359;28;20028;-49
2022/07/29 04:46:19;;;;;;;8.88;4.63;;;;;;;15.36;100.00;101547.22;5056933;28;20624;-47
2022/07/29 04:48:48;;;;;;;13.77;4.60;;;;;;;15.41;100.00;101558.28;5057982;28;20032;-49
2022/07/29 04:51:14;;;;;;;6.82;4.82;;;;;;;15.49;100.00;101560.09;5056444;28;20024;-48
2022/07/29 04:53:40;;;;;;;10.55;5.40;;;;;;;15.52;100.00;101572.38;5056885;28;20035;-49
2022/07/29 04:56:05;;;;;;;9.52;4.55;;;;;;;15.51;100.00;101565.28;5057000;28;20017;-49
2022/07/29 04:58:30;;;;;;;11.88;5.10;;;;;;;15.50;100.00;101567.16;5056795;28;20101;-54
2022/07/29 05:00:56;;;;;;;13.90;5.00;;;;;;;15.55;100.00;101578.25;5056623;28;20032;-46
2022/07/29 05:03:21;;;;;;;10.38;4.78;;;;;;;15.51;100.00;101578.75;5056952;28;20028;-47
2022/07/29 05:05:46;;;;;;;11.95;5.07;;;;;;;15.59;100.00;101587.63;5057596;28;20089;-48
2022/07/29 05:08:12;;;;;;;9.18;4.95;;;;;;;15.53;100.00;101574.88;5049381;28;20021;-47
2022/07/29 05:10:37;;;;;;;7.93;4.60;;;;;;;15.58;100.00;101572.50;5053942;28;20100;-45
2022/07/29 05:13:07;;;;;;;11.35;5.30;;;;;;;15.62;100.00;101567.59;5057801;28;20170;-47
2022/07/29 05:15:33;;;;;;;9.88;5.07;;;;;;;15.63;100.00;101571.94;5056277;28;20102;-48
2022/07/29 05:17:59;;;;;;;14.02;5.43;;;;;;;15.70;100.00;101572.09;5057136;28;20016;-47
2022/07/29 05:20:28;;;;;;;8.77;5.05;;;;;;;15.71;100.00;101569.22;5055258;28;20025;-48
2022/07/29 05:22:54;;;;;;;14.70;5.38;;;;;;;15.64;100.00;101576.34;5056142;28;20320;-50
2022/07/29 05:25:19;;;;;;;11.73;5.32;;;;;;;15.73;100.00;101577.13;5056114;28;20024;-47
2022/07/29 05:27:45;;;;;;;8.57;5.45;;;;;;;15.85;100.00;101587.38;5057083;28;20315;-47
2022/07/29 05:30:10;;;;;;;12.07;5.55;;;;;;;15.91;100.00;101601.13;5054819;28;20550;-47
2022/07/29 05:32:35;;;;;;;8.13;5.25;;;;;;;16.06;100.00;101593.13;5057342;28;20039;-48
2022/07/29 05:35:01;;;;;;;9.23;5.32;;;;;;;16.04;100.00;101583.38;5056718;28;20165;-46
2022/07/29 05:37:26;;;;;;;12.15;5.90;;;;;;;16.13;100.00;101594.09;5055924;28;20024;-46
2022/07/29 05:39:51;;;;;;;9.20;5.70;;;;;;;16.07;100.00;101598.31;5056455;28;20028;-47
2022/07/29 05:42:17;;;;;;;9.63;5.50;;;;;;;16.10;100.00;101599.81;5055261;28;20554;-45
2022/07/29 05:44:42;;;;;;;14.75;5.85;;;;;;;16.18;100.00;101597.09;5042474;28;20029;-49
2022/07/29 05:47:07;;;;;;;9.95;5.38;;;;;;;16.29;100.00;101607.41;5056419;28;20094;-48
2022/07/29 05:49:32;;;;;;;14.02;5.22;;;;;;;16.43;100.00;101611.22;5056820;28;20119;-46
2022/07/29 05:51:58;;;;;;;13.38;5.70;;;;;;;16.48;100.00;101607.94;5056194;28;20024;-46
2022/07/29 05:54:23;;;;;;;10.88;5.90;;;;;;;16.42;100.00;101620.31;5056046;28;20527;-47
2022/07/29 05:56:49;;;;;;;10.18;5.65;;;;;;;16.49;100.00;101615.03;5055580;28;20025;-49
2022/07/29 05:59:14;;;;;;;9.38;5.57;;;;;;;16.56;100.00;101606.03;5054621;28;20051;-48
2022/07/29 06:01:41;;;;;;;16.35;5.80;;;;;;;16.64;100.00;101609.69;5055750;28;20029;-51
2022/07/29 06:04:06;;;;;;;10.13;5.32;;;;;;;16.75;100.00;101606.53;5055611;28;20098;-50
2022/07/29 06:06:33;;;;;;;14.38;5.38;;;;;;;16.77;100.00;101602.63;5056212;28;20020;-48
2022/07/29 06:08:58;;;;;;;8.63;5.28;;;;;;;16.85;100.00;101614.41;5056177;28;20352;-50
2022/07/29 06:11:23;;;;;;;18.30;5.18;;;;;;;16.89;100.00;101607.63;5054450;28;20035;-46
2022/07/29 06:13:49;;;;;;;13.73;5.10;;;;;;;16.97;100.00;101599.41;5054523;28;20034;-49
2022/07/29 06:16:14;;;;;;;13.93;5.65;;;;;;;16.98;99.55;101601.09;5056239;28;20040;-48
2022/07/29 06:18:39;;;;;;;8.02;5.40;;;;;;;17.00;99.69;101609.03;5054763;28;20429;-48
2022/07/29 06:21:09;;;;;;;10.25;5.18;;;;;;;16.96;99.27;101606.69;5054142;28;20033;-48
2022/07/29 06:23:35;;;;;;;8.50;5.20;;;;;;;16.91;98.76;101601.00;5054360;28;20023;-48
2022/07/29 06:26:00;;;;;;;16.70;5.10;;;;;;;16.95;98.32;101593.38;5055977;28;20016;-50
2022/07/29 06:28:26;;;;;;;11.13;5.80;;;;;;;16.88;98.04;101598.66;5054197;28;20153;-48
2022/07/29 06:30:51;;;;;;;11.15;5.45;;;;;;;16.90;98.60;101602.03;5054519;28;20372;-48
2022/07/29 06:33:18;;;;;;;13.60;5.47;;;;;;;16.93;99.02;101604.34;5053083;28;20035;-48
2022/07/29 06:35:44;;;;;;;11.13;5.25;;;;;;;16.95;97.98;101605.03;5054448;28;20012;-49
2022/07/29 06:38:11;;;;;;;15.40;5.57;;;;;;;17.02;98.09;101602.41;5054236;28;20024;-47
2022/07/29 06:43:20;;;;;;;13.45;5.88;;;;;;;17.00;96.90;101604.44;5055639;28;20126;-47
2022/07/29 06:45:46;;;;;;;12.68;5.45;;;;;;;17.08;96.94;101607.06;5054693;28;20021;-50
2022/07/29 06:48:11;;;;;;;11.25;5.97;;;;;;;17.17;97.17;101607.81;5054643;28;20069;-46
2022/07/29 06:50:36;;;;;;;11.88;5.70;;;;;;;17.25;97.15;101606.91;5054954;28;20105;-47
2022/07/29 06:53:02;;;;;;;14.75;5.40;;;;;;;17.23;95.67;101611.66;5055431;28;20055;-47
2022/07/29 06:55:28;;;;;;;12.40;5.35;;;;;;;17.32;96.82;101610.53;5054229;28;20081;-48
2022/07/29 06:57:53;;;;;;;10.35;5.50;;;;;;;17.41;96.21;101616.66;5055770;28;20024;-50
2022/07/29 07:00:18;;;;;;;9.35;5.57;;;;;;;17.57;95.85;101605.66;5052867;28;20147;-48
2022/07/29 07:02:43;;;;;;;13.85;5.57;;;;;;;17.60;93.84;101620.63;5055791;28;20033;-45
2022/07/29 07:05:09;;;;;;;11.38;5.30;;;;;;;17.60;94.34;101626.88;5054920;28;20430;-49
2022/07/29 07:07:34;;;;;;;15.77;6.18;;;;;;;17.69;94.19;101630.31;5053449;28;20029;-48
2022/07/29 07:09:59;;;;;;;14.05;5.78;;;;;;;17.69;94.06;101617.63;5048486;28;20165;-47
2022/07/29 07:12:25;;;;;;;13.50;5.88;;;;;;;17.84;94.30;101631.13;5054698;28;20020;-47
2022/07/29 07:14:50;;;;;;;11.23;6.25;;;;;;;17.87;92.19;101630.78;5053341;28;20032;-50
2022/07/29 07:17:15;;;;;;;12.95;5.93;;;;;;;17.79;92.59;101630.03;5055597;28;20020;-49
2022/07/29 07:19:41;;;;;;;10.13;5.47;;;;;;;17.88;93.42;101627.03;5053027;28;20106;-47
2022/07/29 07:22:06;;;;;;;10.82;5.60;;;;;;;17.93;92.26;101625.63;5054182;28;20031;-50
2022/07/29 07:24:31;;;;;;;12.25;5.80;;;;;;;17.82;91.56;101627.78;5054130;28;20052;-50
2022/07/29 07:26:56;;;;;;;15.50;5.65;;;;;;;17.80;93.29;101627.09;5055156;28;20028;-51
2022/07/29 07:29:22;;;;;;;10.48;6.03;;;;;;;17.75;92.72;101624.13;5053388;28;20032;-48
2022/07/29 07:31:47;;;;;;;14.68;6.57;;;;;;;17.78;93.56;101633.75;5054536;28;20022;-47
2022/07/29 07:34:12;;;;;;;8.52;5.38;;;;;;;17.81;94.43;101625.25;5054512;28;20024;-50
2022/07/29 07:36:38;;;;;;;14.52;6.20;;;;;;;18.00;94.53;101623.84;5053944;28;20012;-50
2022/07/29 07:39:05;;;;;;;10.25;5.90;;;;;;;18.31;92.30;101620.81;5054513;28;20437;-49
2022/07/29 07:41:30;;;;;;;13.75;6.50;;;;;;;18.52;92.73;101620.00;5054651;28;20028;-50
2022/07/29 07:43:55;;;;;;;12.73;6.00;;;;;;;18.76;90.59;101621.44;5046720;28;20033;-50
2022/07/29 07:46:21;;;;;;;20.25;6.68;;;;;;;18.87;89.73;101621.94;5049618;28;20035;-48
2022/07/29 07:48:46;;;;;;;14.75;6.10;;;;;;;18.99;88.65;101618.50;5054845;28;20843;-47
2022/07/29 07:51:11;;;;;;;15.30;6.30;;;;;;;19.16;88.87;101629.88;5053927;28;20047;-48
2022/07/29 07:53:36;;;;;;;14.60;6.50;;;;;;;19.29;89.78;101622.84;5054052;28;20047;-50
2022/07/29 07:56:04;;;;;;;9.85;6.40;;;;;;;19.29;88.78;101629.09;5054840;28;20213;-47
2022/07/29 07:58:29;;;;;;;13.18;5.97;;;;;;;19.28;89.58;101619.31;5054253;28;20471;-50
2022/07/29 08:00:54;;;;;;;13.68;6.05;;;;;;;19.11;88.27;101620.66;5052629;28;20025;-49
2022/07/29 08:03:20;;;;;;;12.25;6.15;;;;;;;19.24;91.14;101622.63;5054533;28;20030;-47
2022/07/29 08:05:46;;;;;;;15.07;6.85;;;;;;;19.32;87.89;101615.16;5053353;28;20024;-48
2022/07/29 08:08:11;;;;;;;17.58;6.53;;;;;;;19.53;87.36;101626.91;5054461;28;20522;-48
2022/07/29 08:10:51;;;;;;;11.40;6.57;;;;;;;19.81;86.40;101626.88;5054029;28;20025;-49
2022/07/29 08:13:18;;;;;;;14.90;5.93;;;;;;;20.08;86.61;101630.47;5053366;28;20416;-47
2022/07/29 08:15:45;;;;;;;12.73;6.07;;;;;;;20.34;85.66;101637.00;5053453;28;20085;-47
2022/07/29 08:18:10;;;;;;;8.55;6.10;;;;;;;20.52;83.37;101632.81;5054035;28;20024;-50
2022/07/29 08:20:38;;;;;;;15.13;6.32;;;;;;;20.55;82.59;101632.41;5053943;28;20074;-48
2022/07/29 08:23:05;;;;;;;12.63;6.78;;;;;;;20.48;83.33;101627.84;5053354;28;20021;-51
2022/07/29 08:25:31;;;;;;;10.32;6.65;;;;;;;20.67;83.27;101634.34;5054787;28;20046;-48
2022/07/29 08:27:56;;;;;;;14.40;6.80;;;;;;;20.84;80.12;101634.75;5054298;28;20029;-47
2022/07/29 08:30:21;;;;;;;13.25;6.22;;;;;;;21.16;82.10;101632.19;5051729;28;20027;-49
2022/07/29 08:32:48;;;;;;;13.05;6.20;;;;;;;21.28;80.41;101635.06;5053250;28;20111;-48
2022/07/29 08:35:13;;;;;;;11.35;6.10;;;;;;;21.30;77.88;101629.44;5053998;28;20043;-48
2022/07/29 08:37:38;;;;;;;14.38;6.45;;;;;;;21.49;79.81;101639.44;5053792;28;20063;-47
2022/07/29 08:40:05;;;;;;;14.38;6.38;;;;;;;21.52;78.40;101638.16;5053153;28;20032;-50
2022/07/29 08:42:31;;;;;;;18.77;6.60;;;;;;;21.57;80.31;101641.94;5057434;28;20113;-49
2022/07/29 08:44:57;;;;;;;9.30;5.90;;;;;;;21.74;79.27;101641.44;5055873;28;20117;-48
2022/07/29 08:47:26;;;;;;;9.68;6.05;;;;;;;21.82;77.47;101645.78;5056242;28;20046;-48
2022/07/29 08:49:51;;;;;;;9.68;6.03;;;;;;;21.80;74.50;101640.56;5057200;28;20090;-47
2022/07/29 08:52:18;;;;;;;9.93;5.32;;;;;;;21.72;71.52;101643.53;5057004;28;20028;-49
2022/07/29 08:54:45;;;;;;;11.85;5.82;;;;;;;21.87;75.92;101646.81;5057465;28;20082;-46
2022/07/29 08:57:13;;;;;;;12.90;5.97;;;;;;;22.01;77.41;101644.84;5057172;28;20304;-47
2022/07/29 08:59:42;;;;;;;12.68;5.68;;;;;;;22.15;75.84;101638.28;5055715;28;20048;-50
2022/07/29 09:02:21;;;;;;;15.23;5.80;;;;;;;22.12;72.22;101633.28;5056499;28;20034;-50
2022/07/29 09:04:47;;;;;;;10.43;5.30;;;;;;;22.30;74.71;101637.16;5057636;28;20040;-47
2022/07/29 09:07:17;;;;;;;12.38;6.05;;;;;;;22.16;71.93;101642.66;5055988;28;20438;-50
2022/07/29 09:09:42;;;;;;;10.80;6.05;;;;;;;22.25;71.19;101635.09;5050030;28;20111;-51
2022/07/29 09:12:11;;;;;;;10.95;5.28;;;;;;;22.46;74.68;101638.53;5056971;28;20316;-48
2022/07/29 09:14:39;;;;;;;13.13;5.32;;;;;;;22.59;75.92;101630.25;5054666;28;20020;-51
2022/07/29 09:17:05;;;;;;;15.93;5.85;;;;;;;22.89;73.67;101624.94;5056987;28;20051;-51
2022/07/29 09:19:34;;;;;;;14.75;6.00;;;;;;;22.90;71.09;101625.78;5057159;28;20481;-49
2022/07/29 09:22:01;;;;;;;11.00;6.43;;;;;;;23.03;72.03;101630.25;5056641;28;20024;-49
2022/07/29 09:24:39;;;;;;;11.13;6.40;;;;;;;23.05;71.37;101634.44;5056261;28;20078;-47
2022/07/29 09:27:30;;;;;;;26.17;6.10;;;;;;;23.14;72.03;101636.91;5056064;28;20025;-50
2022/07/29 09:30:00;;;;;;;13.73;5.25;;;;;;;22.99;66.36;101638.06;5038820;28;20079;-51
2022/07/29 09:32:26;;;;;;;12.13;5.70;;;;;;;22.99;66.66;101638.06;5057303;28;20016;-49
2022/07/29 09:35:14;;;;;;;11.10;4.38;;;;;;;23.12;66.60;101648.03;5056167;28;20458;-52
2022/07/29 09:37:39;;;;;;;12.60;4.47;;;;;;;23.12;62.78;101647.22;5056024;28;20600;-50
2022/07/29 09:40:13;;;;;;;12.20;4.40;;;;;;;23.30;64.71;101638.19;5056067;28;20245;-48
2022/07/29 09:42:38;;;;;;;9.88;4.47;;;;;;;23.19;61.05;101634.34;5056627;28;20281;-50
2022/07/29 09:45:04;;;;;;;16.80;4.43;;;;;;;23.46;65.86;101634.88;5043097;28;20063;-51
2022/07/29 09:47:48;;;;;;;14.38;3.95;;;;;;;23.80;67.11;101643.47;5056359;28;20082;-52
2022/07/29 09:50:15;;;;;;;8.00;4.28;;;;;;;24.11;65.56;101644.34;5056120;28;20030;-51
2022/07/29 09:52:49;;;;;;;9.35;4.43;;;;;;;24.14;62.74;101644.69;5055457;28;20032;-51
2022/07/29 09:55:16;;;;;;;13.30;4.47;;;;;;;23.91;55.67;101644.59;5055969;28;20009;-49
2022/07/29 09:57:42;;;;;;;9.65;4.22;;;;;;;23.80;58.86;101649.75;5055760;28;20358;-53
2022/07/29 10:00:12;;;;;;;10.00;4.30;;;;;;;23.93;58.71;101651.50;5054358;28;20049;-48
2022/07/29 10:02:39;;;;;;;8.90;3.70;;;;;;;24.16;57.53;101645.28;5056897;28;20102;-52
2022/07/29 10:05:27;;;;;;;9.35;3.50;;;;;;;24.45;59.83;101642.75;5055186;28;20032;-51
2022/07/29 10:07:55;;;;;;;10.75;3.97;;;;;;;24.57;57.58;101646.34;5056313;28;20220;-51
2022/07/29 10:10:26;;;;;;;14.88;4.25;;;;;;;24.38;60.18;101640.13;5054299;28;20468;-48
2022/07/29 10:12:55;;;;;;;8.23;4.55;;;;;;;24.35;60.99;101637.84;5056334;28;20221;-52
2022/07/29 10:15:25;;;;;;;11.23;4.55;;;;;;;24.54;61.95;101645.97;5054813;28;20043;-51
2022/07/29 10:17:52;;;;;;;8.52;4.47;;;;;;;24.66;57.85;101632.34;5055892;28;20217;-51
2022/07/29 10:20:17;;;;;;;9.13;4.15;;;;;;;25.01;59.22;101637.84;5055627;28;20032;-50
2022/07/29 10:22:43;;;;;;;11.95;4.00;;;;;;;25.18;54.81;101632.47;5052570;28;20024;-48
2022/07/29 10:25:10;;;;;;;9.15;4.28;;;;;;;25.19;54.94;101633.31;5055543;28;20024;-49
2022/07/29 10:27:36;;;;;;;10.15;4.00;;;;;;;25.31;53.92;101636.88;5055750;28;20024;-52
2022/07/29 10:30:01;;;;;;;8.65;4.10;;;;;;;25.51;56.06;101628.28;5054726;28;20099;-49
2022/07/29 10:32:40;;;;;;;11.07;3.78;;;;;;;25.66;53.08;101625.88;5055454;28;20111;-51
2022/07/29 10:35:14;;;;;;;9.20;4.63;;;;;;;25.44;51.57;101635.78;5054127;28;20376;-49
2022/07/29 10:38:04;;;;;;;15.93;4.57;;;;;;;25.63;55.29;101637.28;5054793;28;20119;-51
2022/07/29 10:41:26;;;;;;;13.57;3.97;;;;;;;25.73;53.76;101636.66;5043891;28;20051;-49
2022/07/29 10:44:11;;;;;;;9.27;4.70;;;;;;;25.81;53.32;101632.69;5027669;28;20046;-52
2022/07/29 10:46:37;;;;;;;12.18;5.03;;;;;;;25.65;52.09;101631.56;5054529;28;20579;-52
2022/07/29 10:49:08;;;;;;;8.52;4.00;;;;;;;25.75;53.76;101631.78;5055707;28;20020;-47
2022/07/29 10:51:52;;;;;;;;;;;;;;;26.03;53.52;101638.34;5054940;28;20043;-48
2022/07/29 10:54:45;;;;;;;8.77;3.80;;;;;;;26.21;54.41;101631.84;5055240;28;20369;-51
2022/07/29 10:57:21;;;;;;;10.38;4.35;;;;;;;26.31;48.36;101632.00;5037855;28;20029;-51
2022/07/29 11:00:10;;;;;;;10.02;3.80;;;;;;;26.53;52.84;101634.84;5053913;28;20048;-51
2022/07/29 11:02:56;;;;;;;17.13;4.45;;;;;;;26.75;51.85;101628.63;5055381;28;20391;-52
2022/07/29 11:05:23;;;;;;;9.45;4.20;;;;;;;26.95;51.93;101628.94;5052612;28;20039;-51
2022/07/29 11:08:09;;;;;;;12.95;5.00;;;;;;;26.80;50.48;101623.25;5053148;28;20024;-50
2022/07/29 11:10:35;;;;;;;11.98;4.60;;;;;;;26.90;48.45;101622.53;5052449;28;20036;-51
2022/07/29 11:13:00;;;;;;;9.00;3.92;;;;;;;27.03;49.50;101626.84;5055893;28;20074;-52
2022/07/29 11:15:25;;;;;;;9.52;4.35;;;;;;;26.80;46.92;101621.31;5052990;28;20095;-52
2022/07/29 11:17:53;;;;;;;8.32;4.60;;;;;;;26.50;45.68;101624.38;5054914;28;20021;-50
2022/07/29 11:20:41;;;;;;;13.38;4.32;;;;;;;26.37;49.35;101617.31;5053296;28;20093;-52
2022/07/29 11:23:28;;;;;;;10.68;3.72;;;;;;;26.33;53.10;101618.06;5054786;28;20400;-50
2022/07/29 11:26:16;;;;;;;10.65;4.20;;;;;;;26.60;51.30;101627.28;5054412;28;20563;-51
2022/07/29 11:28:51;;;;;;;12.40;4.70;;;;;;;26.83;50.06;101619.16;5042329;28;20483;-51